createdAt,value
2023-02-22T00:02:25.277Z,1.21
2023-02-22T00:04:57.026Z,1.21
2023-02-22T00:07:28.607Z,1.23
2023-02-22T00:10:01.071Z,1.23
2023-02-22T00:12:32.624Z,1.22
2023-02-22T00:15:05.772Z,1.21
2023-02-22T00:17:37.386Z,1.21
2023-02-22T00:20:14.120Z,1.22
2023-02-22T00:22:47.495Z,1.22
2023-02-22T00:25:24.947Z,1.20
2023-02-22T00:27:56.580Z,1.23
2023-02-22T00:30:31.978Z,1.26
2023-02-22T00:33:06.168Z,1.29
2023-02-22T00:35:37.929Z,1.30
2023-02-22T00:38:09.562Z,1.22
2023-02-22T00:40:41.163Z,1.13
2023-02-22T00:43:13.721Z,1.09
2023-02-22T00:45:45.392Z,1.02
2023-02-22T00:48:17.339Z,0.90
2023-02-22T00:50:48.946Z,0.87
2023-02-22T00:53:21.131Z,0.79
2023-02-22T00:55:54.011Z,0.70
2023-02-22T00:58:26.930Z,0.55
2023-02-22T01:00:58.593Z,0.43
2023-02-22T01:03:32.292Z,0.36
2023-02-22T01:06:04.284Z,0.34
2023-02-22T01:08:35.914Z,0.35
2023-02-22T01:11:07.510Z,0.35
2023-02-22T01:13:39.538Z,0.35
2023-02-22T01:16:11.393Z,0.35
2023-02-22T01:18:43.093Z,0.34
2023-02-22T01:21:15.196Z,0.34
2023-02-22T01:23:47.344Z,0.40
2023-02-22T01:26:18.968Z,0.45
2023-02-22T01:28:50.540Z,0.46
2023-02-22T01:31:24.228Z,0.48
2023-02-22T01:33:55.839Z,0.52
2023-02-22T01:36:27.532Z,0.55
2023-02-22T01:38:59.050Z,0.62
2023-02-22T01:41:30.674Z,0.73
2023-02-22T01:44:20.248Z,0.76
2023-02-22T01:46:51.823Z,0.78
2023-02-22T01:49:35.716Z,0.82
2023-02-22T01:52:10.479Z,0.85
2023-02-22T01:54:47.070Z,0.85
2023-02-22T01:57:24.695Z,0.84
2023-02-22T02:00:01.815Z,0.85
2023-02-22T02:02:33.451Z,0.90
2023-02-22T02:05:08.409Z,0.93
2023-02-22T02:07:40.856Z,0.98
2023-02-22T02:10:15.527Z,1.02
2023-02-22T02:12:50.441Z,1.07
2023-02-22T02:15:31.980Z,1.11
2023-02-22T02:18:07.226Z,1.09
2023-02-22T02:20:44.171Z,1.04
2023-02-22T02:23:56.879Z,1.05
2023-02-22T02:26:53.140Z,1.12
2023-02-22T02:29:31.023Z,1.08
2023-02-22T02:32:19.849Z,1.04
2023-02-22T02:35:03.557Z,1.02
2023-02-22T02:37:56.756Z,1.01
2023-02-22T02:40:39.213Z,1.06
2023-02-22T02:43:21.648Z,1.08
2023-02-22T02:46:12.237Z,1.12
2023-02-22T02:48:54.794Z,1.13
2023-02-22T02:51:32.467Z,1.12
2023-02-22T02:54:05.353Z,1.12
2023-02-22T02:56:37.597Z,1.12
2023-02-22T02:59:29.523Z,1.08
2023-02-22T03:02:16.277Z,1.06
2023-02-22T03:05:24.832Z,1.00
2023-02-22T03:08:04.304Z,0.99
2023-02-22T03:11:14.953Z,0.96
2023-02-22T03:14:11.001Z,0.94
2023-02-22T03:16:58.031Z,0.98
2023-02-22T03:19:50.131Z,1.00
2023-02-22T03:22:27.988Z,1.01
2023-02-22T03:25:09.010Z,1.03
2023-02-22T03:27:46.611Z,1.07
2023-02-22T03:30:25.908Z,1.16
2023-02-22T03:33:09.157Z,1.27
2023-02-22T03:35:51.023Z,1.24
2023-02-22T03:38:26.954Z,1.14
2023-02-22T03:41:01.931Z,1.08
2023-02-22T03:43:48.296Z,1.05
2023-02-22T03:46:20.622Z,1.04
2023-02-22T03:49:00.300Z,1.06
2023-02-22T03:51:32.001Z,1.13
2023-02-22T03:54:05.353Z,1.18
2023-02-22T03:56:47.474Z,1.19
2023-02-22T04:02:02.284Z,1.19
2023-02-22T04:04:34.006Z,1.16
2023-02-22T04:09:55.674Z,1.11
2023-02-22T04:12:27.479Z,1.12
2023-02-22T04:14:59.389Z,1.13
2023-02-22T04:17:31.209Z,1.13
2023-02-22T04:20:04.040Z,1.14
2023-02-22T04:22:36.404Z,1.15
2023-02-22T04:25:08.222Z,1.19
2023-02-22T04:27:39.830Z,1.24
2023-02-22T04:30:12.435Z,1.30
2023-02-22T04:32:44.889Z,1.33
2023-02-22T04:35:16.611Z,1.33
2023-02-22T04:37:48.162Z,1.35
2023-02-22T04:40:25.192Z,1.31
2023-02-22T04:42:56.764Z,1.24
2023-02-22T04:45:28.377Z,1.22
2023-02-22T04:47:59.971Z,1.23
2023-02-22T04:50:31.597Z,1.23
2023-02-22T04:53:03.813Z,1.23
2023-02-22T04:55:35.926Z,1.22
2023-02-22T04:58:09.494Z,1.21
2023-02-22T05:00:41.279Z,1.19
2023-02-22T05:03:12.872Z,1.16
2023-02-22T05:05:44.573Z,1.12
2023-02-22T05:08:16.170Z,1.08
2023-02-22T05:10:47.825Z,1.03
2023-02-22T05:13:19.519Z,1.00
2023-02-22T05:15:51.277Z,1.00
2023-02-22T05:18:23.037Z,0.98
2023-02-22T05:20:54.663Z,0.95
2023-02-22T05:23:26.290Z,0.92
2023-02-22T05:25:58.397Z,0.90
2023-02-22T05:28:29.998Z,0.89
2023-02-22T05:31:01.808Z,0.88
2023-02-22T05:33:33.457Z,0.87
2023-02-22T05:36:05.893Z,0.89
2023-02-22T05:38:43.552Z,0.91
2023-02-22T05:41:16.084Z,0.91
2023-02-22T05:43:48.765Z,0.93
2023-02-22T05:46:20.468Z,0.93
2023-02-22T05:48:52.121Z,0.93
2023-02-22T05:51:23.814Z,0.94
2023-02-22T05:53:55.496Z,0.95
2023-02-22T05:56:30.488Z,0.94
2023-02-22T05:59:02.266Z,0.92
2023-02-22T06:01:33.921Z,0.91
2023-02-22T06:04:05.700Z,0.91
2023-02-22T06:06:37.343Z,0.93
2023-02-22T06:09:08.929Z,0.93
2023-02-22T06:11:40.646Z,0.95
2023-02-22T06:14:12.280Z,0.92
2023-02-22T06:16:44.152Z,0.93
2023-02-22T06:19:15.792Z,0.92
2023-02-22T06:21:55.954Z,0.92
2023-02-22T06:24:27.714Z,0.96
2023-02-22T06:27:02.047Z,0.94
2023-02-22T06:29:34.071Z,0.92
2023-02-22T06:32:05.950Z,0.93
2023-02-22T06:34:37.770Z,0.96
2023-02-22T06:37:09.629Z,0.96
2023-02-22T06:39:41.277Z,0.96
2023-02-22T06:42:13.775Z,0.99
2023-02-22T06:44:45.604Z,1.07
2023-02-22T06:47:17.308Z,1.09
2023-02-22T06:49:59.713Z,1.10
2023-02-22T06:52:31.842Z,1.14
2023-02-22T06:55:04.107Z,1.18
2023-02-22T06:57:36.619Z,1.21
2023-02-22T07:00:09.304Z,1.26
2023-02-22T07:02:40.984Z,1.30
2023-02-22T07:05:13.418Z,1.33
2023-02-22T07:07:45.522Z,1.38
2023-02-22T07:10:30.248Z,1.42
2023-02-22T07:13:03.666Z,1.43
2023-02-22T07:15:36.007Z,1.46
